Time;durP1;ratioP1;P1;durP2;ratioP2;P2;SDS_P1;SDS_P2;PMS_P1;PMS_P2;Temp;Humidity;BMP_temperature;BMP_pressure;BME280_temperature;BME280_humidity;BME280_pressure;Samples;Min_cycle;Max_cycle;Signal;HPM_P1;HPM_P2
2022/06/28 00:01:59;;;;;;;4.60;3.15;;;18.10;99.90;;;;;;5004295;28;20042;-39
2022/06/28 00:04:25;;;;;;;5.15;4.25;;;18.10;99.90;;;;;;5003077;28;20030;-38
2022/06/28 00:06:51;;;;;;;5.18;3.45;;;18.00;99.90;;;;;;5001342;28;20100;-39
2022/06/28 00:09:16;;;;;;;5.47;3.70;;;18.00;99.90;;;;;;5007239;28;20034;-38
2022/06/28 00:11:43;;;;;;;5.38;3.17;;;18.10;99.90;;;;;;5001733;28;20080;-39
2022/06/28 00:16:55;;;;;;;3.63;3.28;;;18.00;99.90;;;;;;5004289;28;20107;-37
2022/06/28 00:19:20;;;;;;;4.15;3.63;;;18.00;99.90;;;;;;5003632;28;20523;-39
2022/06/28 00:21:47;;;;;;;4.20;3.80;;;18.00;99.90;;;;;;5004573;28;20038;-38
2022/06/28 00:24:13;;;;;;;5.40;3.88;;;18.10;99.90;;;;;;5005304;28;20033;-39
2022/06/28 00:26:39;;;;;;;5.43;3.33;;;18.00;99.90;;;;;;5004251;28;20032;-37
2022/06/28 00:29:05;;;;;;;3.90;3.45;;;18.00;99.90;;;;;;5002505;28;21034;-37
2022/06/28 00:31:30;;;;;;;5.15;3.45;;;18.00;99.90;;;;;;5000604;28;20487;-37
2022/06/28 00:33:56;;;;;;;3.85;3.45;;;18.00;99.90;;;;;;5002863;28;20064;-37
2022/06/28 00:36:22;;;;;;;5.30;3.80;;;18.00;99.90;;;;;;5003608;28;20026;-38
2022/06/28 00:38:47;;;;;;;3.47;3.17;;;18.00;99.90;;;;;;5002883;28;20041;-37
2022/06/28 00:41:13;;;;;;;5.25;3.65;;;18.00;99.90;;;;;;5001650;28;20451;-36
2022/06/28 00:43:39;;;;;;;3.67;3.30;;;17.90;99.90;;;;;;5001793;28;20034;-39
2022/06/28 00:46:07;;;;;;;5.93;3.90;;;17.90;99.90;;;;;;5002963;28;20038;-39
2022/06/28 00:48:33;;;;;;;4.63;3.42;;;17.90;99.90;;;;;;5001282;28;20030;-37
2022/06/28 00:50:58;;;;;;;3.83;3.30;;;17.90;99.90;;;;;;5002407;28;20042;-38
2022/06/28 00:53:24;;;;;;;6.90;3.65;;;17.90;99.90;;;;;;5001889;28;20194;-39
2022/06/28 00:55:50;;;;;;;4.20;3.80;;;17.90;99.90;;;;;;5003216;28;20030;-38
2022/06/28 00:58:16;;;;;;;4.00;3.60;;;17.90;99.90;;;;;;5002021;28;20037;-38
2022/06/28 01:00:45;;;;;;;3.97;3.55;;;17.90;99.90;;;;;;5004580;28;20045;-38
2022/06/28 01:03:17;;;;;;;4.00;3.60;;;17.90;99.90;;;;;;4999462;28;20497;-37
2022/06/28 01:05:43;;;;;;;3.80;3.40;;;17.80;99.90;;;;;;5002257;28;20080;-37
2022/06/28 01:08:10;;;;;;;5.40;3.40;;;17.90;99.90;;;;;;5001293;28;20045;-38
2022/06/28 01:10:37;;;;;;;4.10;3.40;;;17.90;99.90;;;;;;5000305;28;20080;-36
2022/06/28 01:13:03;;;;;;;3.92;3.05;;;17.90;99.90;;;;;;5001823;28;20554;-39
2022/06/28 01:15:30;;;;;;;5.85;3.40;;;17.90;99.90;;;;;;5003166;28;20041;-39
2022/06/28 01:17:56;;;;;;;8.98;3.58;;;17.90;99.90;;;;;;4996985;28;20072;-38
2022/06/28 01:20:22;;;;;;;4.60;3.00;;;17.90;99.90;;;;;;4999898;28;20481;-39
2022/06/28 01:22:48;;;;;;;3.95;3.55;;;17.90;99.90;;;;;;4999190;28;20490;-39
2022/06/28 01:25:13;;;;;;;4.00;3.35;;;17.90;99.90;;;;;;4999862;28;20113;-38
2022/06/28 01:27:40;;;;;;;4.55;3.42;;;17.90;99.90;;;;;;4998894;28;20075;-38
2022/06/28 01:30:07;;;;;;;4.03;3.22;;;17.80;99.90;;;;;;4999428;28;20112;-39
2022/06/28 01:32:34;;;;;;;4.10;3.70;;;17.90;99.90;;;;;;4994541;28;20400;-39
2022/06/28 01:35:03;;;;;;;4.82;3.20;;;17.90;99.90;;;;;;5000288;28;20768;-37
2022/06/28 01:37:29;;;;;;;5.90;2.80;;;17.80;99.90;;;;;;5002701;28;20026;-38
2022/06/28 01:39:55;;;;;;;3.22;2.92;;;17.90;99.90;;;;;;5001437;28;20071;-39
2022/06/28 01:42:20;;;;;;;3.42;2.88;;;17.80;99.90;;;;;;5004846;28;20834;-39
2022/06/28 01:44:47;;;;;;;5.38;3.20;;;17.80;99.90;;;;;;5007506;28;20025;-39
2022/06/28 01:47:16;;;;;;;3.20;2.88;;;17.90;99.90;;;;;;5004113;28;20117;-38
2022/06/28 01:49:41;;;;;;;3.13;2.63;;;17.80;99.90;;;;;;5019517;28;20034;-39
2022/06/28 01:52:07;;;;;;;3.40;3.10;;;17.80;99.90;;;;;;5005431;28;20040;-37
2022/06/28 01:54:33;;;;;;;3.90;3.28;;;17.80;99.90;;;;;;5005523;28;20027;-37
2022/06/28 01:57:01;;;;;;;4.10;3.10;;;17.70;99.90;;;;;;5006691;28;20487;-39
2022/06/28 01:59:27;;;;;;;2.95;2.65;;;17.60;99.90;;;;;;5006846;28;20065;-38
2022/06/28 02:01:53;;;;;;;4.30;2.65;;;17.60;99.90;;;;;;5002618;28;20095;-39
2022/06/28 02:04:21;;;;;;;4.10;3.38;;;17.70;99.90;;;;;;5004274;28;20538;-38
2022/06/28 02:06:46;;;;;;;4.88;3.10;;;17.70;99.90;;;;;;5002899;28;20053;-35
2022/06/28 02:09:12;;;;;;;3.92;2.90;;;17.70;99.90;;;;;;5005092;28;20717;-39
2022/06/28 02:11:37;;;;;;;4.13;3.08;;;17.70;99.90;;;;;;5005123;28;20049;-38
2022/06/28 02:14:03;;;;;;;4.20;2.78;;;17.80;99.90;;;;;;5000917;28;20025;-38
2022/06/28 02:16:29;;;;;;;3.00;2.80;;;17.80;99.90;;;;;;5018187;28;20024;-39
2022/06/28 02:18:54;;;;;;;3.63;2.85;;;17.80;99.90;;;;;;5006359;28;20409;-38
2022/06/28 02:21:20;;;;;;;3.33;2.80;;;17.80;99.90;;;;;;5003381;28;20038;-38
2022/06/28 02:23:45;;;;;;;3.78;2.97;;;17.80;99.90;;;;;;5003324;28;20387;-39
2022/06/28 02:26:13;;;;;;;4.30;3.20;;;17.80;99.90;;;;;;5003814;28;20025;-39
2022/06/28 02:28:42;;;;;;;3.60;2.92;;;17.80;99.90;;;;;;5007249;28;20037;-38
2022/06/28 02:31:14;;;;;;;4.97;2.97;;;17.80;99.90;;;;;;5002615;28;20125;-38
2022/06/28 02:33:41;;;;;;;4.15;3.10;;;17.80;99.90;;;;;;4997700;28;20034;-38
2022/06/28 02:41:36;;;;;;;4.80;2.88;;;17.80;99.90;;;;;;5003872;28;20040;-39
2022/06/28 02:44:02;;;;;;;3.72;2.92;;;17.80;99.90;;;;;;5004975;28;20108;-37
2022/06/28 02:46:28;;;;;;;3.63;2.70;;;17.80;99.90;;;;;;5004372;28;20034;-38
2022/06/28 02:48:53;;;;;;;4.13;2.75;;;17.80;99.90;;;;;;5007724;28;20049;-39
2022/06/28 02:51:20;;;;;;;4.78;3.13;;;17.80;99.90;;;;;;5001913;28;20720;-39
2022/06/28 02:53:46;;;;;;;2.78;2.58;;;17.70;99.90;;;;;;5004615;28;20026;-38
2022/06/28 02:56:12;;;;;;;3.20;2.90;;;17.80;99.90;;;;;;5006632;28;20040;-39
2022/06/28 02:58:38;;;;;;;4.00;3.42;;;17.70;99.90;;;;;;5007649;28;20030;-39
2022/06/28 03:01:04;;;;;;;3.72;3.03;;;17.70;99.90;;;;;;5002434;28;20682;-39
2022/06/28 03:03:30;;;;;;;6.13;2.92;;;17.70;99.90;;;;;;5003456;28;20029;-39
2022/06/28 03:05:55;;;;;;;4.00;3.63;;;17.70;99.90;;;;;;5007748;28;20044;-38
2022/06/28 03:08:21;;;;;;;5.18;3.28;;;17.80;99.90;;;;;;5005942;28;20798;-38
2022/06/28 03:10:47;;;;;;;5.45;3.60;;;17.80;99.90;;;;;;5006654;28;20045;-36
2022/06/28 03:13:12;;;;;;;4.50;3.25;;;17.70;99.90;;;;;;5002554;28;20041;-39
2022/06/28 03:15:38;;;;;;;3.45;3.15;;;17.70;99.90;;;;;;5005094;28;20030;-39
2022/06/28 03:18:04;;;;;;;4.50;3.38;;;17.60;99.90;;;;;;5003826;28;20022;-35
2022/06/28 03:20:29;;;;;;;4.65;3.25;;;17.60;99.90;;;;;;5005080;28;20022;-39
2022/06/28 03:22:55;;;;;;;5.18;3.17;;;17.60;99.90;;;;;;5001900;28;20026;-38
2022/06/28 03:25:21;;;;;;;4.82;3.72;;;17.60;99.90;;;;;;5006211;28;20034;-39
2022/06/28 03:27:47;;;;;;;3.58;2.92;;;17.60;99.90;;;;;;5005513;28;20131;-36
2022/06/28 03:30:13;;;;;;;3.85;3.33;;;17.60;99.90;;;;;;5002201;28;20362;-39
2022/06/28 03:32:39;;;;;;;3.50;3.08;;;17.60;99.90;;;;;;5003225;28;20659;-39
2022/06/28 03:35:05;;;;;;;4.32;2.88;;;17.60;99.90;;;;;;5004226;28;20053;-36
2022/06/28 03:37:30;;;;;;;4.07;3.13;;;17.60;99.90;;;;;;5010806;28;20045;-37
2022/06/28 03:39:56;;;;;;;3.63;3.13;;;17.60;99.90;;;;;;5009467;28;20053;-38
2022/06/28 03:42:22;;;;;;;3.28;2.90;;;17.60;99.90;;;;;;5005097;28;20081;-36
2022/06/28 03:44:47;;;;;;;7.35;3.28;;;17.50;99.90;;;;;;5003584;28;20040;-39
2022/06/28 03:47:13;;;;;;;4.60;2.83;;;17.50;99.90;;;;;;5006484;28;20040;-39
2022/06/28 03:49:39;;;;;;;6.03;2.78;;;17.60;99.90;;;;;;5009519;28;20360;-37
2022/06/28 03:52:04;;;;;;;3.15;2.85;;;17.60;99.90;;;;;;5008108;28;20033;-39
2022/06/28 03:54:30;;;;;;;7.93;4.15;;;17.60;99.90;;;;;;5016954;28;20045;-39
2022/06/28 03:56:56;;;;;;;3.75;2.70;;;17.60;99.90;;;;;;5007154;28;20030;-39
2022/06/28 03:59:21;;;;;;;3.17;2.88;;;17.60;99.90;;;;;;5009743;28;20022;-37
2022/06/28 04:01:47;;;;;;;6.63;2.83;;;17.60;99.90;;;;;;5007599;28;20849;-38
2022/06/28 04:04:13;;;;;;;3.10;2.80;;;17.70;99.90;;;;;;5004263;28;20053;-39
2022/06/28 04:06:39;;;;;;;3.08;2.55;;;17.70;99.90;;;;;;5008120;28;20088;-37
2022/06/28 04:09:04;;;;;;;3.65;3.25;;;17.70;99.90;;;;;;5008035;28;20033;-38
2022/06/28 04:11:30;;;;;;;3.20;2.88;;;17.70;99.90;;;;;;5008099;28;20061;-36
2022/06/28 04:13:55;;;;;;;5.35;2.83;;;17.80;99.90;;;;;;5004189;28;20018;-39
2022/06/28 04:16:22;;;;;;;3.75;3.03;;;17.80;99.90;;;;;;5002988;28;20026;-37
2022/06/28 04:18:49;;;;;;;4.68;3.10;;;17.80;99.90;;;;;;5007129;28;20026;-39
2022/06/28 04:21:16;;;;;;;6.57;2.97;;;17.80;99.90;;;;;;5008468;28;20022;-37
2022/06/28 04:23:43;;;;;;;4.18;3.30;;;17.80;99.90;;;;;;5004240;28;20030;-36
2022/06/28 04:26:09;;;;;;;6.45;4.05;;;17.90;99.90;;;;;;5007488;28;20034;-39
2022/06/28 04:28:35;;;;;;;6.18;3.33;;;17.90;99.90;;;;;;5010461;28;20560;-37
2022/06/28 04:31:02;;;;;;;4.97;3.85;;;17.90;99.90;;;;;;5004870;28;20072;-39
2022/06/28 04:33:28;;;;;;;6.53;3.97;;;17.90;99.90;;;;;;5007128;28;20395;-39
2022/06/28 04:35:53;;;;;;;4.82;3.60;;;18.00;99.90;;;;;;5003535;28;20028;-39
2022/06/28 04:38:19;;;;;;;8.00;4.25;;;18.00;99.90;;;;;;5005747;28;20523;-36
2022/06/28 04:40:45;;;;;;;4.88;3.50;;;17.90;99.90;;;;;;5006652;28;20026;-37
2022/06/28 04:43:11;;;;;;;4.22;3.80;;;18.10;99.90;;;;;;5005646;28;20498;-39
2022/06/28 04:45:37;;;;;;;4.95;3.60;;;18.10;99.90;;;;;;5005737;28;20040;-39
2022/06/28 04:48:02;;;;;;;5.28;3.90;;;18.20;99.90;;;;;;5003983;28;20037;-38
2022/06/28 04:50:28;;;;;;;4.53;3.67;;;18.20;99.90;;;;;;5010113;28;20057;-37
2022/06/28 04:52:54;;;;;;;4.47;3.80;;;18.20;99.90;;;;;;5002145;28;20026;-38
2022/06/28 04:55:19;;;;;;;5.55;4.30;;;18.30;99.90;;;;;;5005326;28;20021;-39
2022/06/28 04:57:45;;;;;;;7.53;4.60;;;18.30;99.90;;;;;;5007244;28;20510;-36
2022/06/28 05:00:12;;;;;;;6.32;4.18;;;18.30;99.90;;;;;;5005569;28;20692;-39
2022/06/28 05:02:39;;;;;;;4.10;3.70;;;18.30;99.90;;;;;;5001793;28;20038;-37
2022/06/28 05:05:06;;;;;;;5.35;4.10;;;18.30;99.90;;;;;;5004563;28;20613;-38
2022/06/28 05:07:32;;;;;;;4.82;3.80;;;18.40;99.90;;;;;;5006935;28;20518;-38
2022/06/28 05:10:02;;;;;;;7.40;4.78;;;18.50;99.90;;;;;;5007668;28;20116;-36
2022/06/28 05:12:28;;;;;;;4.90;4.35;;;18.50;99.90;;;;;;5000977;28;20129;-37
2022/06/28 05:14:53;;;;;;;5.13;4.43;;;18.50;99.90;;;;;;5006703;28;20104;-38
2022/06/28 05:17:19;;;;;;;4.68;4.00;;;18.30;99.90;;;;;;5007864;28;20022;-39
2022/06/28 05:19:46;;;;;;;6.95;4.20;;;18.40;99.90;;;;;;5009647;28;20022;-37
2022/06/28 05:22:11;;;;;;;4.25;3.85;;;18.20;99.90;;;;;;5007563;28;20025;-39
2022/06/28 05:24:37;;;;;;;5.85;4.28;;;18.10;99.90;;;;;;5007472;28;20175;-37
2022/06/28 05:27:04;;;;;;;5.45;3.45;;;18.10;99.90;;;;;;5007231;28;20062;-39
2022/06/28 05:29:30;;;;;;;4.70;4.30;;;18.10;99.90;;;;;;5006590;28;20037;-36
2022/06/28 05:31:55;;;;;;;4.07;3.67;;;18.10;99.90;;;;;;5006891;28;20537;-39
2022/06/28 05:34:21;;;;;;;5.88;4.20;;;18.20;99.90;;;;;;5003396;28;20439;-35
2022/06/28 05:36:47;;;;;;;4.68;3.78;;;18.30;99.90;;;;;;5001484;28;20185;-38
2022/06/28 05:39:13;;;;;;;6.15;3.92;;;18.40;99.90;;;;;;5007352;28;20535;-39
2022/06/28 05:41:41;;;;;;;4.50;3.92;;;18.50;99.90;;;;;;5000804;28;20044;-39
2022/06/28 05:44:07;;;;;;;5.10;4.18;;;18.50;99.90;;;;;;5002841;28;20042;-36
2022/06/28 05:46:33;;;;;;;6.10;3.80;;;18.50;99.90;;;;;;5004029;28;20104;-36
2022/06/28 05:48:59;;;;;;;3.88;3.58;;;18.60;99.90;;;;;;5006483;28;20112;-35
2022/06/28 05:51:25;;;;;;;4.90;4.10;;;18.60;99.90;;;;;;5006449;28;20391;-37
2022/06/28 05:53:51;;;;;;;4.07;3.40;;;18.50;99.90;;;;;;5007234;28;20030;-37
2022/06/28 05:56:17;;;;;;;4.30;3.90;;;18.40;99.90;;;;;;5001292;28;20034;-35
2022/06/28 05:58:42;;;;;;;4.20;3.80;;;18.40;99.90;;;;;;4999012;28;20105;-39
2022/06/28 06:01:08;;;;;;;4.50;3.85;;;18.50;99.90;;;;;;4998620;28;20041;-38
2022/06/28 06:03:33;;;;;;;4.13;3.83;;;18.40;99.90;;;;;;4999921;28;20456;-37
2022/06/28 06:05:59;;;;;;;4.22;3.83;;;18.50;99.90;;;;;;4999306;28;20034;-37
2022/06/28 06:08:25;;;;;;;4.70;3.67;;;18.60;99.90;;;;;;5007415;28;20113;-36
2022/06/28 06:10:51;;;;;;;5.43;3.97;;;18.50;99.90;;;;;;5000640;28;20029;-39
2022/06/28 06:13:16;;;;;;;5.07;4.20;;;18.50;99.90;;;;;;5012667;28;20640;-39
2022/06/28 06:15:42;;;;;;;4.50;4.10;;;18.60;99.90;;;;;;5006337;28;20068;-39
2022/06/28 06:18:08;;;;;;;5.47;4.30;;;18.30;99.90;;;;;;5009084;28;20030;-39
2022/06/28 06:20:33;;;;;;;4.50;3.80;;;18.40;99.90;;;;;;5007152;28;20080;-38
2022/06/28 06:22:59;;;;;;;5.07;4.40;;;18.50;99.90;;;;;;5008171;28;20061;-39
2022/06/28 06:25:25;;;;;;;5.85;4.07;;;18.60;99.90;;;;;;5008585;28;20030;-39
2022/06/28 06:27:50;;;;;;;6.07;4.10;;;18.90;99.90;;;;;;5006848;28;20045;-39
2022/06/28 06:30:16;;;;;;;4.80;4.30;;;19.20;99.90;;;;;;5007389;28;20061;-38
2022/06/28 06:32:42;;;;;;;5.80;4.22;;;19.30;99.90;;;;;;5003767;28;20041;-39
2022/06/28 06:35:08;;;;;;;5.53;4.18;;;19.40;99.90;;;;;;5008331;28;20394;-39
2022/06/28 06:37:34;;;;;;;5.03;4.43;;;19.50;99.90;;;;;;5008552;28;20022;-39
2022/06/28 06:40:00;;;;;;;5.88;4.55;;;19.50;99.90;;;;;;5000036;28;20048;-39
2022/06/28 06:42:25;;;;;;;6.65;4.90;;;19.20;99.90;;;;;;5007065;28;20479;-39
2022/06/28 06:44:52;;;;;;;5.07;4.57;;;18.80;99.90;;;;;;5006532;28;20033;-39
2022/06/28 06:47:18;;;;;;;7.53;5.88;;;18.70;99.90;;;;;;5007670;28;20427;-38
2022/06/28 06:49:43;;;;;;;5.88;4.85;;;18.60;99.90;;;;;;5008662;28;20034;-36
2022/06/28 06:52:09;;;;;;;5.93;4.43;;;18.60;99.90;;;;;;5006789;28;20497;-39
2022/06/28 06:54:35;;;;;;;6.80;4.55;;;18.60;99.90;;;;;;5009373;28;20018;-37
2022/06/28 06:57:00;;;;;;;5.70;5.10;;;18.70;99.90;;;;;;5006589;28;20559;-38
2022/06/28 06:59:26;;;;;;;5.53;5.03;;;18.80;99.90;;;;;;5008005;28;20061;-39
2022/06/28 07:01:51;;;;;;;7.13;5.75;;;18.80;99.90;;;;;;5007255;28;20845;-35
2022/06/28 07:04:17;;;;;;;5.80;5.18;;;18.70;99.90;;;;;;5006332;28;20464;-38
2022/06/28 07:06:43;;;;;;;7.35;6.00;;;18.70;99.90;;;;;;5008122;28;20419;-38
2022/06/28 07:09:08;;;;;;;6.30;5.70;;;18.60;99.90;;;;;;5007770;28;20105;-38
2022/06/28 07:11:34;;;;;;;7.85;7.05;;;18.60;99.90;;;;;;5009774;28;20033;-36
2022/06/28 07:14:00;;;;;;;6.43;5.57;;;18.60;99.90;;;;;;5010177;28;20060;-39
2022/06/28 07:16:26;;;;;;;5.63;5.10;;;18.70;99.90;;;;;;5003334;28;20487;-39
2022/06/28 07:18:51;;;;;;;7.10;5.32;;;18.90;99.90;;;;;;5011146;28;20121;-39
2022/06/28 07:21:17;;;;;;;6.25;4.82;;;19.10;99.90;;;;;;5010691;28;20033;-36
2022/06/28 07:23:43;;;;;;;5.72;5.07;;;19.30;99.90;;;;;;5011529;28;20476;-38
2022/06/28 07:26:09;;;;;;;5.50;4.63;;;19.40;99.90;;;;;;5011692;28;20049;-38
2022/06/28 07:28:35;;;;;;;7.15;5.50;;;19.50;99.90;;;;;;5011843;28;20529;-38
2022/06/28 07:31:00;;;;;;;5.20;4.70;;;19.70;99.90;;;;;;5010585;28;20034;-39
2022/06/28 07:33:26;;;;;;;5.65;4.57;;;20.30;99.90;;;;;;5007404;28;20542;-39
2022/06/28 07:35:52;;;;;;;5.10;4.60;;;20.40;99.90;;;;;;5010119;28;20026;-39
2022/06/28 07:38:17;;;;;;;4.35;3.97;;;20.30;99.90;;;;;;5010689;28;20064;-36
2022/06/28 07:40:43;;;;;;;4.22;3.83;;;20.10;99.90;;;;;;5010591;28;20109;-39
2022/06/28 07:43:09;;;;;;;4.97;3.50;;;19.90;99.90;;;;;;5010913;28;20541;-39
2022/06/28 07:45:36;;;;;;;3.17;2.88;;;20.10;99.90;;;;;;5011664;28;20037;-39
2022/06/28 07:48:03;;;;;;;3.58;3.20;;;20.20;99.90;;;;;;5009835;28;20037;-39
2022/06/28 07:53:21;;;;;;;3.35;3.05;;;20.60;99.90;;;;;;4991459;28;20038;-37
2022/06/28 07:55:46;;;;;;;3.83;3.53;;;20.70;99.90;;;;;;5010509;28;20048;-38
2022/06/28 07:58:12;;;;;;;3.45;3.15;;;20.70;99.90;;;;;;5012256;28;20114;-37
2022/06/28 08:00:38;;;;;;;3.75;3.45;;;20.70;99.90;;;;;;5009675;28;20034;-38
2022/06/28 08:03:04;;;;;;;3.83;2.97;;;20.30;99.90;;;;;;5009708;28;20021;-36
2022/06/28 08:05:29;;;;;;;4.85;3.10;;;20.30;99.90;;;;;;5011274;28;20080;-39
2022/06/28 08:07:55;;;;;;;3.67;3.38;;;20.30;99.90;;;;;;5010509;28;21008;-39
2022/06/28 08:10:21;;;;;;;3.40;2.75;;;20.30;99.90;;;;;;5011191;28;20383;-39
2022/06/28 08:12:47;;;;;;;3.70;2.78;;;20.30;99.90;;;;;;5009964;28;20625;-36
2022/06/28 08:15:13;;;;;;;3.50;3.20;;;20.10;99.90;;;;;;5010316;28;20112;-39
2022/06/28 08:17:39;;;;;;;3.13;2.83;;;20.20;99.90;;;;;;5009978;28;20068;-38
2022/06/28 08:20:05;;;;;;;3.58;3.28;;;20.20;99.90;;;;;;5007899;28;20941;-39
2022/06/28 08:22:31;;;;;;;2.70;2.50;;;20.10;99.90;;;;;;5008766;28;20108;-37
2022/06/28 08:24:56;;;;;;;2.60;2.40;;;19.80;99.90;;;;;;5010727;28;20113;-39
2022/06/28 08:27:22;;;;;;;4.07;2.60;;;19.70;99.90;;;;;;5009966;28;20426;-38
2022/06/28 08:29:48;;;;;;;2.92;2.70;;;19.60;99.90;;;;;;5009346;28;20521;-37
2022/06/28 08:32:16;;;;;;;3.13;2.80;;;19.60;99.90;;;;;;5008914;28;20038;-38
2022/06/28 08:34:42;;;;;;;;;;;19.50;99.90;;;;;;5010619;28;20037;-39
2022/06/28 08:37:07;;;;;;;2.70;2.50;;;19.70;99.90;;;;;;5010028;28;19941;-39
2022/06/28 08:39:33;;;;;;;2.30;2.10;;;19.70;99.90;;;;;;5010815;28;20040;-39
2022/06/28 08:42:09;;;;;;;3.58;2.92;;;19.60;99.90;;;;;;5004886;28;20040;-39
2022/06/28 08:44:35;;;;;;;4.22;3.03;;;19.50;99.90;;;;;;5004183;28;20025;-39
2022/06/28 08:47:03;;;;;;;3.10;2.50;;;19.40;99.90;;;;;;5004151;28;20121;-39
2022/06/28 08:49:50;;;;;;;3.80;3.00;;;19.20;99.90;;;;;;5001405;28;20461;-39
2022/06/28 08:52:19;;;;;;;3.10;2.80;;;19.20;99.90;;;;;;5016509;28;20120;-35
2022/06/28 08:54:46;;;;;;;3.20;2.70;;;19.30;99.90;;;;;;5001553;28;20064;-38
2022/06/28 08:57:11;;;;;;;3.72;3.10;;;19.50;99.90;;;;;;5001664;28;20028;-36
2022/06/28 08:59:37;;;;;;;4.00;2.90;;;19.60;99.90;;;;;;5001527;28;20039;-38
2022/06/28 09:02:07;;;;;;;4.00;3.00;;;19.60;99.90;;;;;;5001706;28;20044;-36
2022/06/28 09:04:33;;;;;;;4.20;3.67;;;19.70;99.90;;;;;;5001713;28;20479;-38
2022/06/28 09:06:59;;;;;;;3.85;3.55;;;19.80;99.90;;;;;;5000937;28;20108;-37
2022/06/28 09:09:25;;;;;;;4.50;4.10;;;20.00;99.90;;;;;;5001512;28;20037;-36
2022/06/28 09:11:52;;;;;;;3.80;3.40;;;20.00;99.90;;;;;;5001923;28;20038;-36
2022/06/28 09:14:30;;;;;;;4.35;3.45;;;20.10;99.90;;;;;;5001381;28;20068;-37
2022/06/28 09:16:57;;;;;;;3.88;2.92;;;20.00;99.90;;;;;;4999989;28;20114;-36
2022/06/28 09:19:41;;;;;;;3.22;3.00;;;19.90;99.90;;;;;;5001309;28;20030;-36
2022/06/28 09:22:07;;;;;;;3.15;2.30;;;20.00;99.90;;;;;;5001932;28;20706;-38
2022/06/28 09:24:33;;;;;;;2.83;2.63;;;20.00;99.90;;;;;;5000996;28;20033;-39
2022/06/28 09:27:08;;;;;;;3.25;2.95;;;20.00;99.90;;;;;;5000004;28;20033;-39
2022/06/28 09:29:47;;;;;;;7.03;3.72;;;19.90;99.90;;;;;;4998985;28;20113;-35
2022/06/28 09:32:13;;;;;;;3.30;3.00;;;19.90;99.90;;;;;;4999758;28;20080;-39
2022/06/28 09:34:57;;;;;;;3.17;2.67;;;19.80;99.90;;;;;;4999794;28;20404;-35
2022/06/28 09:37:33;;;;;;;2.80;2.58;;;19.90;99.90;;;;;;5000675;28;20510;-36
2022/06/28 09:40:16;;;;;;;2.53;2.33;;;20.10;99.90;;;;;;5005096;28;20184;-38
2022/06/28 09:42:43;;;;;;;2.50;2.30;;;20.10;99.90;;;;;;5001129;28;20034;-38
2022/06/28 09:45:14;;;;;;;2.75;2.53;;;20.20;99.90;;;;;;5000508;28;20030;-39
2022/06/28 09:47:48;;;;;;;3.30;3.00;;;20.20;99.90;;;;;;5000405;28;20042;-38
2022/06/28 09:50:20;;;;;;;4.65;3.03;;;20.30;99.90;;;;;;5000263;28;20766;-38
2022/06/28 09:52:46;;;;;;;4.13;3.17;;;20.30;99.90;;;;;;5000785;28;20034;-39
2022/06/28 09:55:16;;;;;;;4.05;3.20;;;20.30;99.90;;;;;;5000302;28;20045;-38
2022/06/28 09:57:47;;;;;;;4.13;3.13;;;20.30;99.90;;;;;;5001384;28;20034;-37
2022/06/28 10:00:16;;;;;;;3.50;2.90;;;20.30;99.90;;;;;;5000996;28;20691;-37
2022/06/28 10:02:43;;;;;;;3.60;3.30;;;20.30;99.90;;;;;;4999345;28;20038;-38
2022/06/28 10:05:10;;;;;;;4.10;3.40;;;20.40;99.90;;;;;;5015875;28;20083;-38
2022/06/28 10:07:36;;;;;;;3.30;2.97;;;20.30;99.90;;;;;;4999423;28;20054;-37
2022/06/28 10:10:04;;;;;;;3.25;2.63;;;20.40;99.90;;;;;;5000477;28;20051;-36
2022/06/28 10:15:19;;;;;;;3.50;3.20;;;20.40;99.90;;;;;;5002669;28;20083;-34
2022/06/28 10:17:47;;;;;;;3.20;2.90;;;20.50;99.90;;;;;;4999241;28;20040;-36
2022/06/28 10:20:19;;;;;;;3.38;3.08;;;20.50;99.90;;;;;;5000335;28;20041;-35
2022/06/28 10:22:45;;;;;;;3.22;3.00;;;20.50;99.90;;;;;;4999959;28;20077;-37
2022/06/28 10:25:23;;;;;;;3.35;3.05;;;20.50;99.90;;;;;;5000563;28;20026;-35
2022/06/28 10:27:51;;;;;;;3.45;3.10;;;20.60;99.90;;;;;;4999806;28;20030;-35
2022/06/28 10:30:22;;;;;;;3.08;2.78;;;20.50;99.90;;;;;;4998987;28;20038;-37
2022/06/28 10:32:56;;;;;;;3.75;3.20;;;20.50;99.90;;;;;;5002016;28;20034;-38
2022/06/28 10:35:31;;;;;;;3.58;3.28;;;20.50;99.90;;;;;;4999237;28;20028;-37
2022/06/28 10:38:09;;;;;;;4.70;3.78;;;20.60;99.90;;;;;;5001777;28;20104;-38
2022/06/28 10:40:49;;;;;;;4.90;3.40;;;20.70;99.90;;;;;;5000205;28;20040;-38
2022/06/28 10:43:27;;;;;;;4.90;3.85;;;20.90;99.90;;;;;;4999577;28;20048;-35
2022/06/28 10:46:07;;;;;;;5.03;3.50;;;20.90;99.90;;;;;;5001924;28;20059;-38
2022/06/28 10:48:48;;;;;;;3.83;3.50;;;21.00;99.90;;;;;;5000050;28;20483;-38
2022/06/28 10:51:14;;;;;;;3.42;3.13;;;21.10;99.90;;;;;;5002020;28;20045;-36
2022/06/28 10:54:00;;;;;;;3.92;3.50;;;21.30;99.90;;;;;;4998590;28;20034;-38
2022/06/28 10:56:27;;;;;;;3.80;3.47;;;21.20;99.90;;;;;;4999466;28;20104;-34
2022/06/28 10:59:10;;;;;;;7.30;3.55;;;21.10;99.90;;;;;;4999449;28;20026;-37
2022/06/28 11:01:39;;;;;;;2.97;2.78;;;21.10;99.90;;;;;;4999367;28;20042;-37
2022/06/28 11:04:19;;;;;;;3.00;2.67;;;21.10;99.90;;;;;;4999834;28;20032;-38
2022/06/28 11:06:49;;;;;;;5.10;3.00;;;21.00;99.90;;;;;;5012889;28;20054;-35
2022/06/28 11:09:47;;;;;;;4.35;2.92;;;20.80;99.90;;;;;;4999938;28;20104;-37
2022/06/28 11:12:16;;;;;;;;;;;20.80;99.90;;;;;;5001215;28;20121;-37
2022/06/28 11:14:49;;;;;;;3.00;2.55;;;20.90;99.90;;;;;;5001345;28;20016;-35
2022/06/28 11:17:17;;;;;;;3.15;2.85;;;20.90;99.10;;;;;;4999818;28;20567;-37
2022/06/28 11:19:50;;;;;;;3.65;3.35;;;20.80;99.90;;;;;;4999251;28;20018;-37
2022/06/28 11:22:30;;;;;;;2.85;2.65;;;20.80;99.90;;;;;;5000359;28;20077;-36
2022/06/28 11:25:02;;;;;;;5.30;3.13;;;20.90;99.80;;;;;;5001054;28;20034;-37
2022/06/28 11:27:27;;;;;;;3.50;3.20;;;20.90;99.90;;;;;;4999064;28;20073;-37
2022/06/28 11:30:00;;;;;;;3.70;3.20;;;20.80;99.90;;;;;;4999438;28;20078;-38
2022/06/28 11:32:38;;;;;;;3.42;3.10;;;20.70;99.90;;;;;;4999139;28;20044;-38
2022/06/28 11:35:07;;;;;;;3.88;3.28;;;20.70;99.90;;;;;;4999758;28;20022;-38
2022/06/28 11:37:46;;;;;;;4.38;3.17;;;20.80;99.90;;;;;;5004945;28;20042;-38
2022/06/28 11:40:12;;;;;;;3.25;2.95;;;20.80;99.90;;;;;;4998364;28;20068;-35
2022/06/28 11:42:37;;;;;;;5.07;3.47;;;20.80;98.50;;;;;;5017148;28;20038;-38
2022/06/28 11:45:03;;;;;;;3.10;2.80;;;20.80;98.00;;;;;;5000336;28;20073;-37
2022/06/28 11:47:29;;;;;;;2.70;2.50;;;20.90;97.10;;;;;;4999029;28;20025;-36
2022/06/28 11:50:17;;;;;;;3.53;3.22;;;20.80;97.00;;;;;;4999026;28;20068;-35
2022/06/28 11:52:51;;;;;;;3.10;2.58;;;21.00;97.30;;;;;;4999948;28;20038;-38
2022/06/28 11:55:19;;;;;;;3.00;2.70;;;20.90;97.60;;;;;;5002716;28;20371;-38
2022/06/28 11:57:44;;;;;;;2.72;2.53;;;20.90;96.80;;;;;;5002093;28;20061;-36
2022/06/28 12:00:13;;;;;;;2.65;2.28;;;21.00;99.90;;;;;;5000302;28;20065;-37
2022/06/28 12:02:51;;;;;;;2.75;2.55;;;21.10;99.20;;;;;;5002434;28;20038;-35
2022/06/28 12:05:30;;;;;;;;;;;21.20;97.80;;;;;;5002699;28;20068;-38
2022/06/28 12:07:56;;;;;;;2.60;2.40;;;21.20;97.20;;;;;;5003894;28;19921;-35
2022/06/28 12:10:24;;;;;;;2.72;2.50;;;21.20;96.20;;;;;;5002309;28;20045;-38
2022/06/28 12:12:50;;;;;;;2.95;2.58;;;21.40;98.50;;;;;;5001208;28;20039;-38
2022/06/28 12:15:27;;;;;;;3.33;3.00;;;21.40;96.40;;;;;;5003730;28;20045;-36
2022/06/28 12:17:59;;;;;;;3.70;3.40;;;21.20;94.90;;;;;;5001577;28;20390;-37
2022/06/28 12:20:24;;;;;;;3.30;3.03;;;21.00;96.00;;;;;;5002774;28;20408;-37
2022/06/28 12:23:02;;;;;;;4.05;3.42;;;21.00;96.50;;;;;;5001995;28;20033;-37
2022/06/28 12:25:28;;;;;;;4.95;3.67;;;20.90;98.60;;;;;;5002616;28;20034;-38
2022/06/28 12:27:54;;;;;;;4.47;4.07;;;20.90;99.90;;;;;;5001557;28;20034;-37
2022/06/28 12:30:20;;;;;;;4.63;4.07;;;20.90;99.20;;;;;;5001651;28;20548;-36
2022/06/28 12:32:45;;;;;;;5.07;4.68;;;20.90;99.80;;;;;;5001957;28;20038;-38
2022/06/28 12:35:12;;;;;;;6.13;5.53;;;20.90;98.00;;;;;;5001831;28;20029;-37
2022/06/28 12:37:38;;;;;;;5.90;5.40;;;20.80;99.90;;;;;;5001963;28;20345;-38
2022/06/28 12:40:05;;;;;;;6.65;5.95;;;20.80;98.50;;;;;;5001663;28;20029;-36
2022/06/28 12:42:32;;;;;;;6.40;5.90;;;20.90;99.90;;;;;;5002883;28;20061;-37
2022/06/28 12:45:01;;;;;;;6.47;5.88;;;20.90;99.90;;;;;;5003808;28;20045;-39
2022/06/28 12:47:33;;;;;;;5.93;5.43;;;20.90;98.40;;;;;;5001959;28;20060;-39
2022/06/28 12:50:02;;;;;;;6.35;5.75;;;20.90;98.00;;;;;;5002740;28;20399;-39
2022/06/28 12:52:29;;;;;;;5.55;5.05;;;20.90;98.80;;;;;;5001238;28;20450;-39
2022/06/28 12:54:57;;;;;;;6.07;5.38;;;20.90;99.70;;;;;;5002820;28;20371;-37
2022/06/28 12:57:23;;;;;;;4.88;4.47;;;20.90;97.30;;;;;;5000556;28;20034;-39
2022/06/28 12:59:49;;;;;;;6.25;5.30;;;20.90;97.60;;;;;;5001920;28;20107;-39
2022/06/28 13:02:15;;;;;;;5.35;4.90;;;20.90;98.20;;;;;;5001620;28;20498;-39
2022/06/28 13:04:41;;;;;;;5.75;5.22;;;20.90;97.00;;;;;;5002282;28;20040;-39